sensor_id;sensor_type;location;lat;lon;timestamp;pressure;altitude;pressure_sealevel;temperature;humidity
8501;BME280;4288;48.484;10.024;2024-01-11T00:02:23;96403.06;;;-5.98;nan
8501;BME280;4288;48.484;10.024;2024-01-11T00:04:50;96402.53;;;-6.05;nan
8501;BME280;4288;48.484;10.024;2024-01-11T00:07:19;96403.06;;;-5.98;nan
8501;BME280;4288;48.484;10.024;2024-01-11T00:09:46;96411.94;;;-5.99;nan
8501;BME280;4288;48.484;10.024;2024-01-11T00:12:14;96408.28;;;-6.03;nan
8501;BME280;4288;48.484;10.024;2024-01-11T00:14:41;96399.13;;;-6.06;nan
8501;BME280;4288;48.484;10.024;2024-01-11T00:17:08;96400.47;;;-6.03;nan
8501;BME280;4288;48.484;10.024;2024-01-11T00:19:35;96401.78;;;-5.96;nan
8501;BME280;4288;48.484;10.024;2024-01-11T00:22:02;96402.53;;;-6.05;nan
8501;BME280;4288;48.484;10.024;2024-01-11T00:24:31;96408.28;;;-5.98;nan
8501;BME280;4288;48.484;10.024;2024-01-11T00:26:59;96416.03;;;-6.08;nan
8501;BME280;4288;48.484;10.024;2024-01-11T00:29:26;96406.47;;;-5.98;nan
8501;BME280;4288;48.484;10.024;2024-01-11T00:31:54;96411.13;;;-6.05;nan
8501;BME280;4288;48.484;10.024;2024-01-11T00:34:21;96409.28;;;-6.09;nan
8501;BME280;4288;48.484;10.024;2024-01-11T00:36:49;96415.28;;;-6.04;nan
8501;BME280;4288;48.484;10.024;2024-01-11T00:39:16;96410.06;;;-6.04;nan
8501;BME280;4288;48.484;10.024;2024-01-11T00:41:45;96411.13;;;-6.00;nan
8501;BME280;4288;48.484;10.024;2024-01-11T00:44:12;96409.31;;;-5.99;nan
8501;BME280;4288;48.484;10.024;2024-01-11T00:46:40;96406.47;;;-5.98;nan
8501;BME280;4288;48.484;10.024;2024-01-11T00:49:07;96411.44;;;-5.91;nan
8501;BME280;4288;48.484;10.024;2024-01-11T00:51:35;96411.41;;;-5.96;nan
8501;BME280;4288;48.484;10.024;2024-01-11T00:54:02;96406.66;;;-6.09;nan
8501;BME280;4288;48.484;10.024;2024-01-11T00:56:29;96408.75;;;-6.06;nan
8501;BME280;4288;48.484;10.024;2024-01-11T00:58:58;96419.47;;;-6.03;nan
8501;BME280;4288;48.484;10.024;2024-01-11T01:01:26;96411.88;;;-6.09;nan
8501;BME280;4288;48.484;10.024;2024-01-11T01:03:52;96411.63;;;-6.08;nan
8501;BME280;4288;48.484;10.024;2024-01-11T01:06:19;96417.63;;;-6.02;nan
8501;BME280;4288;48.484;10.024;2024-01-11T01:08:47;96419.47;;;-5.98;nan
8501;BME280;4288;48.484;10.024;2024-01-11T01:11:14;96420.00;;;-5.96;nan
8501;BME280;4288;48.484;10.024;2024-01-11T01:13:41;96422.81;;;-6.07;nan
8501;BME280;4288;48.484;10.024;2024-01-11T01:16:10;96419.22;;;-5.96;nan
8501;BME280;4288;48.484;10.024;2024-01-11T01:18:37;96423.66;;;-5.92;nan
8501;BME280;4288;48.484;10.024;2024-01-11T01:21:05;96431.75;;;-5.88;nan
8501;BME280;4288;48.484;10.024;2024-01-11T01:23:33;96426.34;;;-5.72;nan
8501;BME280;4288;48.484;10.024;2024-01-11T01:26:00;96429.25;;;-5.58;nan
8501;BME280;4288;48.484;10.024;2024-01-11T01:28:27;96434.91;;;-5.76;nan
8501;BME280;4288;48.484;10.024;2024-01-11T01:30:55;96429.22;;;-5.68;nan
8501;BME280;4288;48.484;10.024;2024-01-11T01:33:23;96431.78;;;-5.83;nan
8501;BME280;4288;48.484;10.024;2024-01-11T01:35:51;96437.28;;;-5.70;nan
8501;BME280;4288;48.484;10.024;2024-01-11T01:38:18;96433.63;;;-5.74;nan
8501;BME280;4288;48.484;10.024;2024-01-11T01:40:45;96433.34;;;-5.72;nan
8501;BME280;4288;48.484;10.024;2024-01-11T01:43:13;96433.84;;;-5.75;nan
8501;BME280;4288;48.484;10.024;2024-01-11T01:45:40;96442.22;;;-5.63;nan
8501;BME280;4288;48.484;10.024;2024-01-11T01:48:08;96439.66;;;-5.53;nan
8501;BME280;4288;48.484;10.024;2024-01-11T01:50:36;96441.25;;;-5.47;nan
8501;BME280;4288;48.484;10.024;2024-01-11T01:53:04;96448.84;;;-5.40;nan
8501;BME280;4288;48.484;10.024;2024-01-11T01:55:32;96451.16;;;-5.44;nan
8501;BME280;4288;48.484;10.024;2024-01-11T01:58:00;96449.59;;;-5.40;nan
8501;BME280;4288;48.484;10.024;2024-01-11T02:00:27;96460.56;;;-5.33;nan
8501;BME280;4288;48.484;10.024;2024-01-11T02:02:55;96464.81;;;-5.17;nan
8501;BME280;4288;48.484;10.024;2024-01-11T02:05:24;96468.94;;;-5.11;nan
8501;BME280;4288;48.484;10.024;2024-01-11T02:07:53;96463.22;;;-5.13;nan
8501;BME280;4288;48.484;10.024;2024-01-11T02:10:20;96462.97;;;-5.06;nan
8501;BME280;4288;48.484;10.024;2024-01-11T02:12:49;96465.34;;;-4.95;nan
8501;BME280;4288;48.484;10.024;2024-01-11T02:15:16;96470.06;;;-4.87;nan
8501;BME280;4288;48.484;10.024;2024-01-11T02:17:44;96468.50;;;-4.83;nan
8501;BME280;4288;48.484;10.024;2024-01-11T02:20:12;96464.84;;;-4.72;nan
8501;BME280;4288;48.484;10.024;2024-01-11T02:22:40;96461.97;;;-4.60;nan
8501;BME280;4288;48.484;10.024;2024-01-11T02:25:10;96456.00;;;-4.40;nan
8501;BME280;4288;48.484;10.024;2024-01-11T02:27:47;96468.25;;;-4.26;nan
8501;BME280;4288;48.484;10.024;2024-01-11T02:30:15;96460.94;;;-4.29;nan
8501;BME280;4288;48.484;10.024;2024-01-11T02:32:44;96461.97;;;-4.25;nan
8501;BME280;4288;48.484;10.024;2024-01-11T02:35:13;96466.69;;;-4.12;nan
8501;BME280;4288;48.484;10.024;2024-01-11T02:37:41;96470.28;;;-3.93;nan
8501;BME280;4288;48.484;10.024;2024-01-11T02:40:12;96460.38;;;-3.91;nan
8501;BME280;4288;48.484;10.024;2024-01-11T02:42:40;96458.53;;;-3.95;nan
8501;BME280;4288;48.484;10.024;2024-01-11T02:45:08;96453.88;;;-3.98;nan
8501;BME280;4288;48.484;10.024;2024-01-11T02:47:36;96464.00;;;-3.92;nan
8501;BME280;4288;48.484;10.024;2024-01-11T02:50:03;96460.88;;;-3.94;nan
8501;BME280;4288;48.484;10.024;2024-01-11T02:52:31;96468.97;;;-3.95;nan
8501;BME280;4288;48.484;10.024;2024-01-11T02:54:58;96461.41;;;-3.87;nan
8501;BME280;4288;48.484;10.024;2024-01-11T02:57:27;96465.53;;;-3.76;nan
8501;BME280;4288;48.484;10.024;2024-01-11T02:59:54;96467.13;;;-3.90;nan
8501;BME280;4288;48.484;10.024;2024-01-11T03:02:21;96460.34;;;-3.81;nan
8501;BME280;4288;48.484;10.024;2024-01-11T03:04:49;96458.47;;;-3.65;nan
8501;BME280;4288;48.484;10.024;2024-01-11T03:07:16;96465.03;;;-3.73;nan
8501;BME280;4288;48.484;10.024;2024-01-11T03:09:44;96465.03;;;-3.73;nan
8501;BME280;4288;48.484;10.024;2024-01-11T03:12:11;96457.19;;;-3.73;nan
8501;BME280;4288;48.484;10.024;2024-01-11T03:14:40;96456.63;;;-3.59;nan
8501;BME280;4288;48.484;10.024;2024-01-11T03:17:07;96444.88;;;-3.57;nan
8501;BME280;4288;48.484;10.024;2024-01-11T03:19:38;96446.66;;;-3.52;nan
8501;BME280;4288;48.484;10.024;2024-01-11T03:22:06;96443.56;;;-3.59;nan
8501;BME280;4288;48.484;10.024;2024-01-11T03:24:36;96440.19;;;-3.70;nan
8501;BME280;4288;48.484;10.024;2024-01-11T03:27:04;96442.03;;;-3.71;nan
8501;BME280;4288;48.484;10.024;2024-01-11T03:29:32;96435.47;;;-3.63;nan
8501;BME280;4288;48.484;10.024;2024-01-11T03:32:01;96443.84;;;-3.61;nan
8501;BME280;4288;48.484;10.024;2024-01-11T03:34:29;96426.84;;;-3.64;nan
8501;BME280;4288;48.484;10.024;2024-01-11T03:36:56;96431.06;;;-3.73;nan
8501;BME280;4288;48.484;10.024;2024-01-11T03:39:24;96423.22;;;-3.68;nan
8501;BME280;4288;48.484;10.024;2024-01-11T03:41:52;96433.94;;;-3.74;nan
8501;BME280;4288;48.484;10.024;2024-01-11T03:44:19;96437.06;;;-3.72;nan
8501;BME280;4288;48.484;10.024;2024-01-11T03:46:47;96425.00;;;-3.58;nan
8501;BME280;4288;48.484;10.024;2024-01-11T03:49:15;96427.66;;;-3.63;nan
8501;BME280;4288;48.484;10.024;2024-01-11T03:51:43;96417.44;;;-3.59;nan
8501;BME280;4288;48.484;10.024;2024-01-11T03:54:11;96418.38;;;-3.40;nan
8501;BME280;4288;48.484;10.024;2024-01-11T03:56:38;96428.38;;;-3.52;nan
8501;BME280;4288;48.484;10.024;2024-01-11T03:59:06;96423.19;;;-3.63;nan
8501;BME280;4288;48.484;10.024;2024-01-11T04:01:37;96422.13;;;-3.56;nan
8501;BME280;4288;48.484;10.024;2024-01-11T04:04:05;96420.56;;;-3.63;nan
8501;BME280;4288;48.484;10.024;2024-01-11T04:06:34;96418.53;;;-3.71;nan
8501;BME280;4288;48.484;10.024;2024-01-11T04:09:01;96421.66;;;-3.74;nan
8501;BME280;4288;48.484;10.024;2024-01-11T04:11:28;96417.75;;;-3.71;nan
8501;BME280;4288;48.484;10.024;2024-01-11T04:13:56;96428.72;;;-3.69;nan
8501;BME280;4288;48.484;10.024;2024-01-11T04:16:23;96422.38;;;-3.58;nan
8501;BME280;4288;48.484;10.024;2024-01-11T04:18:51;96419.53;;;-3.67;nan
8501;BME280;4288;48.484;10.024;2024-01-11T04:21:22;96420.38;;;-3.76;nan
8501;BME280;4288;48.484;10.024;2024-01-11T04:23:51;96419.09;;;-3.84;nan
8501;BME280;4288;48.484;10.024;2024-01-11T04:26:18;96415.66;;;-3.74;nan
8501;BME280;4288;48.484;10.024;2024-01-11T04:28:46;96419.84;;;-3.73;nan
8501;BME280;4288;48.484;10.024;2024-01-11T04:31:14;96417.72;;;-3.61;nan
8501;BME280;4288;48.484;10.024;2024-01-11T04:33:43;96415.41;;;-3.73;nan
8501;BME280;4288;48.484;10.024;2024-01-11T04:36:09;96416.47;;;-3.79;nan
8501;BME280;4288;48.484;10.024;2024-01-11T04:38:37;96420.88;;;-3.69;nan
8501;BME280;4288;48.484;10.024;2024-01-11T04:41:09;96420.06;;;-3.65;nan
8501;BME280;4288;48.484;10.024;2024-01-11T04:43:38;96428.41;;;-3.63;nan
8501;BME280;4288;48.484;10.024;2024-01-11T04:46:13;96425.28;;;-3.65;nan
8501;BME280;4288;48.484;10.024;2024-01-11T04:48:41;96431.28;;;-3.64;nan
8501;BME280;4288;48.484;10.024;2024-01-11T04:51:09;96429.25;;;-3.77;nan
8501;BME280;4288;48.484;10.024;2024-01-11T04:53:37;96427.16;;;-3.75;nan
8501;BME280;4288;48.484;10.024;2024-01-11T04:56:06;96431.00;;;-3.57;nan
8501;BME280;4288;48.484;10.024;2024-01-11T04:58:35;96433.16;;;-3.70;nan
8501;BME280;4288;48.484;10.024;2024-01-11T05:01:04;96419.81;;;-3.63;nan
8501;BME280;4288;48.484;10.024;2024-01-11T05:03:32;96417.97;;;-3.63;nan
8501;BME280;4288;48.484;10.024;2024-01-11T05:06:00;96418.25;;;-3.69;nan
8501;BME280;4288;48.484;10.024;2024-01-11T05:08:27;96422.66;;;-3.65;nan
8501;BME280;4288;48.484;10.024;2024-01-11T05:10:54;96419.03;;;-3.69;nan
8501;BME280;4288;48.484;10.024;2024-01-11T05:13:22;96417.00;;;-3.77;nan
8501;BME280;4288;48.484;10.024;2024-01-11T05:15:51;96415.91;;;-3.66;nan
8501;BME280;4288;48.484;10.024;2024-01-11T05:18:18;96423.53;;;-3.79;nan
8501;BME280;4288;48.484;10.024;2024-01-11T05:20:46;96436.09;;;-3.86;nan
8501;BME280;4288;48.484;10.024;2024-01-11T05:23:13;96440.25;;;-3.85;nan
8501;BME280;4288;48.484;10.024;2024-01-11T05:25:40;96436.31;;;-3.78;nan
8501;BME280;4288;48.484;10.024;2024-01-11T05:28:08;96435.50;;;-3.78;nan
8501;BME280;4288;48.484;10.024;2024-01-11T05:30:35;96435.00;;;-3.80;nan
8501;BME280;4288;48.484;10.024;2024-01-11T05:33:04;96443.13;;;-3.92;nan
8501;BME280;4288;48.484;10.024;2024-01-11T05:35:31;96439.75;;;-3.92;nan
8501;BME280;4288;48.484;10.024;2024-01-11T05:37:59;96435.28;;;-3.82;nan
8501;BME280;4288;48.484;10.024;2024-01-11T05:40:26;96435.78;;;-3.80;nan
8501;BME280;4288;48.484;10.024;2024-01-11T05:42:54;96428.03;;;-4.05;nan
8501;BME280;4288;48.484;10.024;2024-01-11T05:45:22;96421.25;;;-4.06;nan
8501;BME280;4288;48.484;10.024;2024-01-11T05:47:49;96422.00;;;-4.05;nan
8501;BME280;4288;48.484;10.024;2024-01-11T05:50:18;96426.50;;;-4.21;nan
8501;BME280;4288;48.484;10.024;2024-01-11T05:52:45;96425.41;;;-4.05;nan
8501;BME280;4288;48.484;10.024;2024-01-11T05:55:13;96430.63;;;-4.00;nan
8501;BME280;4288;48.484;10.024;2024-01-11T05:57:40;96429.63;;;-4.19;nan
8501;BME280;4288;48.484;10.024;2024-01-11T06:00:08;96436.91;;;-4.06;nan
8501;BME280;4288;48.484;10.024;2024-01-11T06:02:37;96443.91;;;-3.86;nan
8501;BME280;4288;48.484;10.024;2024-01-11T06:05:05;96439.97;;;-3.79;nan
8501;BME280;4288;48.484;10.024;2024-01-11T06:07:36;96436.31;;;-3.78;nan
8501;BME280;4288;48.484;10.024;2024-01-11T06:10:04;96439.97;;;-3.79;nan
8501;BME280;4288;48.484;10.024;2024-01-11T06:12:32;96447.56;;;-3.87;nan
8501;BME280;4288;48.484;10.024;2024-01-11T06:15:00;96450.63;;;-3.70;nan
8501;BME280;4288;48.484;10.024;2024-01-11T06:17:27;96465.50;;;-3.66;nan
8501;BME280;4288;48.484;10.024;2024-01-11T06:19:55;96456.09;;;-3.67;nan
8501;BME280;4288;48.484;10.024;2024-01-11T06:22:22;96453.03;;;-3.79;nan
8501;BME280;4288;48.484;10.024;2024-01-11T06:24:51;96448.66;;;-4.08;nan
8501;BME280;4288;48.484;10.024;2024-01-11T06:27:18;96453.84;;;-3.93;nan
8501;BME280;4288;48.484;10.024;2024-01-11T06:29:46;96458.78;;;-3.82;nan
8501;BME280;4288;48.484;10.024;2024-01-11T06:32:13;96465.84;;;-3.87;nan
8501;BME280;4288;48.484;10.024;2024-01-11T06:34:40;96464.78;;;-3.81;nan
8501;BME280;4288;48.484;10.024;2024-01-11T06:37:11;96471.03;;;-3.77;nan
8501;BME280;4288;48.484;10.024;2024-01-11T06:39:39;96480.19;;;-4.00;nan
8501;BME280;4288;48.484;10.024;2024-01-11T06:42:07;96479.41;;;-3.85;nan
8501;BME280;4288;48.484;10.024;2024-01-11T06:44:35;96476.53;;;-3.84;nan
8501;BME280;4288;48.484;10.024;2024-01-11T06:47:02;96473.41;;;-3.96;nan
8501;BME280;4288;48.484;10.024;2024-01-11T06:49:31;96473.72;;;-4.12;nan
8501;BME280;4288;48.484;10.024;2024-01-11T06:51:59;96471.59;;;-3.90;nan
8501;BME280;4288;48.484;10.024;2024-01-11T06:54:26;96474.72;;;-3.83;nan
8501;BME280;4288;48.484;10.024;2024-01-11T06:56:54;96477.03;;;-3.82;nan
8501;BME280;4288;48.484;10.024;2024-01-11T06:59:23;96479.19;;;-3.99;nan
8501;BME280;4288;48.484;10.024;2024-01-11T07:01:50;96482.28;;;-3.92;nan
8501;BME280;4288;48.484;10.024;2024-01-11T07:04:17;96488.03;;;-3.95;nan
8501;BME280;4288;48.484;10.024;2024-01-11T07:06:45;96481.47;;;-3.72;nan
8501;BME280;4288;48.484;10.024;2024-01-11T07:09:12;96492.19;;;-3.79;nan
8501;BME280;4288;48.484;10.024;2024-01-11T07:11:40;96501.81;;;-3.74;nan
8501;BME280;4288;48.484;10.024;2024-01-11T07:14:07;96515.94;;;-3.75;nan
8501;BME280;4288;48.484;10.024;2024-01-11T07:16:36;96513.59;;;-3.77;nan
8501;BME280;4288;48.484;10.024;2024-01-11T07:19:04;96503.69;;;-3.85;nan
8501;BME280;4288;48.484;10.024;2024-01-11T07:21:31;96496.66;;;-3.89;nan
8501;BME280;4288;48.484;10.024;2024-01-11T07:23:58;96505.28;;;-3.99;nan
8501;BME280;4288;48.484;10.024;2024-01-11T07:26:26;96509.72;;;-3.94;nan
8501;BME280;4288;48.484;10.024;2024-01-11T07:28:54;96510.19;;;-3.82;nan
8501;BME280;4288;48.484;10.024;2024-01-11T07:31:21;96514.88;;;-3.74;nan
8501;BME280;4288;48.484;10.024;2024-01-11T07:33:50;96512.56;;;-3.81;nan
8501;BME280;4288;48.484;10.024;2024-01-11T07:36:18;96505.47;;;-3.65;nan
8501;BME280;4288;48.484;10.024;2024-01-11T07:38:45;96503.91;;;-3.76;nan
8501;BME280;4288;48.484;10.024;2024-01-11T07:41:13;96503.44;;;-3.83;nan
8501;BME280;4288;48.484;10.024;2024-01-11T07:43:40;96516.50;;;-3.88;nan
8501;BME280;4288;48.484;10.024;2024-01-11T07:46:08;96522.47;;;-3.88;nan
8501;BME280;4288;48.484;10.024;2024-01-11T07:48:35;96522.47;;;-3.78;nan
8501;BME280;4288;48.484;10.024;2024-01-11T07:51:04;96525.84;;;-3.62;nan
8501;BME280;4288;48.484;10.024;2024-01-11T07:53:32;96527.91;;;-3.54;nan
8501;BME280;4288;48.484;10.024;2024-01-11T07:55:59;96528.44;;;-3.57;nan
8501;BME280;4288;48.484;10.024;2024-01-11T07:58:27;96537.59;;;-3.59;nan
8501;BME280;4288;48.484;10.024;2024-01-11T08:00:54;96534.38;;;-3.36;nan
8501;BME280;4288;48.484;10.024;2024-01-11T08:03:22;96542.28;;;-3.51;nan
8501;BME280;4288;48.484;10.024;2024-01-11T08:05:49;96538.34;;;-3.54;nan
8501;BME280;4288;48.484;10.024;2024-01-11T08:08:19;96533.63;;;-3.47;nan
8501;BME280;4288;48.484;10.024;2024-01-11T08:10:46;96525.75;;;-3.32;nan
8501;BME280;4288;48.484;10.024;2024-01-11T08:13:14;96533.91;;;-3.43;nan
8501;BME280;4288;48.484;10.024;2024-01-11T08:15:43;96538.34;;;-3.49;nan
8501;BME280;4288;48.484;10.024;2024-01-11T08:18:12;96537.56;;;-3.49;nan
8501;BME280;4288;48.484;10.024;2024-01-11T08:20:41;96548.75;;;-3.34;nan
8501;BME280;4288;48.484;10.024;2024-01-11T08:23:08;96565.69;;;-3.21;nan
8501;BME280;4288;48.484;10.024;2024-01-11T08:25:37;96578.50;;;-3.20;nan
8501;BME280;4288;48.484;10.024;2024-01-11T08:28:05;96577.22;;;-3.22;nan
8501;BME280;4288;48.484;10.024;2024-01-11T08:30:33;96591.81;;;-3.06;nan
8501;BME280;4288;48.484;10.024;2024-01-11T08:33:00;96587.88;;;-3.09;nan
8501;BME280;4288;48.484;10.024;2024-01-11T08:35:27;96581.63;;;-3.18;nan
8501;BME280;4288;48.484;10.024;2024-01-11T08:37:55;96577.72;;;-3.20;nan
8501;BME280;4288;48.484;10.024;2024-01-11T08:40:23;96577.47;;;-3.24;nan
8501;BME280;4288;48.484;10.024;2024-01-11T08:42:52;96575.59;;;-3.08;nan
8501;BME280;4288;48.484;10.024;2024-01-11T08:45:20;96588.69;;;-3.08;nan
8501;BME280;4288;48.484;10.024;2024-01-11T08:47:48;96590.50;;;-3.14;nan
8501;BME280;4288;48.484;10.024;2024-01-11T08:50:16;96602.25;;;-3.11;nan
8501;BME280;4288;48.484;10.024;2024-01-11T08:52:43;96595.94;;;-3.00;nan
8501;BME280;4288;48.484;10.024;2024-01-11T08:55:11;96595.88;;;-2.75;nan
8501;BME280;4288;48.484;10.024;2024-01-11T08:57:39;96614.41;;;-2.77;nan
8501;BME280;4288;48.484;10.024;2024-01-11T09:00:10;96613.22;;;-2.45;nan
8501;BME280;4288;48.484;10.024;2024-01-11T09:02:37;96614.28;;;-2.46;nan
8501;BME280;4288;48.484;10.024;2024-01-11T09:05:05;96605.13;;;-2.44;nan
8501;BME280;4288;48.484;10.024;2024-01-11T09:07:33;96597.41;;;-2.25;nan
8501;BME280;4288;48.484;10.024;2024-01-11T09:10:00;96598.97;;;-2.24;nan
8501;BME280;4288;48.484;10.024;2024-01-11T09:12:28;96608.09;;;-2.17;nan
8501;BME280;4288;48.484;10.024;2024-01-11T09:14:55;96603.06;;;-1.74;nan
8501;BME280;4288;48.484;10.024;2024-01-11T09:17:24;96603.31;;;-1.19;nan
8501;BME280;4288;48.484;10.024;2024-01-11T09:19:51;96604.31;;;-1.38;nan
8501;BME280;4288;48.484;10.024;2024-01-11T09:22:19;96600.81;;;-1.05;nan
8501;BME280;4288;48.484;10.024;2024-01-11T09:24:46;96595.69;;;-1.39;nan
8501;BME280;4288;48.484;10.024;2024-01-11T09:27:14;96585.41;;;-1.35;nan
8501;BME280;4288;48.484;10.024;2024-01-11T09:29:43;96586.84;;;-1.24;nan
8501;BME280;4288;48.484;10.024;2024-01-11T09:32:11;96594.19;;;-0.37;nan
8501;BME280;4288;48.484;10.024;2024-01-11T09:34:40;96603.34;;;-0.53;nan
8501;BME280;4288;48.484;10.024;2024-01-11T09:37:08;96597.19;;;-0.25;nan
8501;BME280;4288;48.484;10.024;2024-01-11T09:39:35;96600.44;;;-0.51;nan
8501;BME280;4288;48.484;10.024;2024-01-11T09:42:07;96599.75;;;-0.01;nan
8501;BME280;4288;48.484;10.024;2024-01-11T09:44:36;96604.34;;;-0.12;nan
8501;BME280;4288;48.484;10.024;2024-01-11T09:47:06;96603.25;;;0.27;nan
8501;BME280;4288;48.484;10.024;2024-01-11T09:49:36;96607.69;;;0.45;nan
8501;BME280;4288;48.484;10.024;2024-01-11T09:52:06;96598.50;;;0.74;nan
8501;BME280;4288;48.484;10.024;2024-01-11T09:54:37;96592.72;;;0.59;nan
8501;BME280;4288;48.484;10.024;2024-01-11T09:57:07;96588.84;;;0.70;nan
8501;BME280;4288;48.484;10.024;2024-01-11T09:59:36;96601.72;;;1.39;nan
8501;BME280;4288;48.484;10.024;2024-01-11T10:02:04;96595.88;;;1.15;nan
8501;BME280;4288;48.484;10.024;2024-01-11T10:04:34;96586.66;;;2.03;nan
8501;BME280;4288;48.484;10.024;2024-01-11T10:07:06;96577.56;;;1.24;nan
8501;BME280;4288;48.484;10.024;2024-01-11T10:09:33;96574.75;;;1.20;nan
8501;BME280;4288;48.484;10.024;2024-01-11T10:12:01;96579.91;;;1.74;nan
8501;BME280;4288;48.484;10.024;2024-01-11T10:14:30;96566.59;;;3.63;nan
8501;BME280;4288;48.484;10.024;2024-01-11T10:16:57;96573.94;;;5.19;nan
8501;BME280;4288;48.484;10.024;2024-01-11T10:19:25;96585.38;;;5.98;nan
8501;BME280;4288;48.484;10.024;2024-01-11T10:21:52;96582.31;;;6.62;nan
8501;BME280;4288;48.484;10.024;2024-01-11T10:24:21;96571.94;;;6.69;nan
8501;BME280;4288;48.484;10.024;2024-01-11T10:26:52;96580.31;;;5.85;nan
8501;BME280;4288;48.484;10.024;2024-01-11T10:29:27;96577.47;;;6.76;nan
8501;BME280;4288;48.484;10.024;2024-01-11T10:31:55;96573.66;;;7.46;nan
8501;BME280;4288;48.484;10.024;2024-01-11T10:34:23;96574.97;;;8.55;nan
8501;BME280;4288;48.484;10.024;2024-01-11T10:36:51;96560.19;;;9.17;nan
8501;BME280;4288;48.484;10.024;2024-01-11T10:39:23;96547.75;;;8.62;nan
8501;BME280;4288;48.484;10.024;2024-01-11T10:41:56;96547.69;;;6.05;nan
8501;BME280;4288;48.484;10.024;2024-01-11T10:44:25;96532.09;;;5.04;nan
8501;BME280;4288;48.484;10.024;2024-01-11T10:46:56;96559.34;;;5.92;nan
8501;BME280;4288;48.484;10.024;2024-01-11T10:49:26;96571.22;;;5.36;nan
8501;BME280;4288;48.484;10.024;2024-01-11T10:51:56;96560.78;;;5.02;nan
8501;BME280;4288;48.484;10.024;2024-01-11T10:54:28;96557.34;;;5.89;nan
8501;BME280;4288;48.484;10.024;2024-01-11T10:56:59;96564.28;;;6.35;nan
8501;BME280;4288;48.484;10.024;2024-01-11T10:59:27;96542.75;;;5.24;nan
8501;BME280;4288;48.484;10.024;2024-01-11T11:01:57;96541.38;;;5.68;nan
8501;BME280;4288;48.484;10.024;2024-01-11T11:04:25;96542.34;;;5.43;nan
8501;BME280;4288;48.484;10.024;2024-01-11T11:06:55;96543.56;;;4.32;nan
8501;BME280;4288;48.484;10.024;2024-01-11T11:09:26;96548.97;;;2.86;nan
8501;BME280;4288;48.484;10.024;2024-01-11T11:11:57;96547.75;;;3.48;nan
8501;BME280;4288;48.484;10.024;2024-01-11T11:14:25;96544.81;;;4.26;nan
8501;BME280;4288;48.484;10.024;2024-01-11T11:16:53;96547.44;;;5.19;nan
8501;BME280;4288;48.484;10.024;2024-01-11T11:19:21;96551.72;;;5.90;nan
8501;BME280;4288;48.484;10.024;2024-01-11T11:21:49;96551.75;;;5.03;nan
8501;BME280;4288;48.484;10.024;2024-01-11T11:24:17;96553.31;;;4.49;nan
8501;BME280;4288;48.484;10.024;2024-01-11T11:26:46;96564.56;;;6.42;nan
8501;BME280;4288;48.484;10.024;2024-01-11T11:29:15;96561.84;;;7.95;nan
8501;BME280;4288;48.484;10.024;2024-01-11T11:31:44;96559.53;;;8.76;nan
8501;BME280;4288;48.484;10.024;2024-01-11T11:34:14;96556.50;;;10.06;nan
8501;BME280;4288;48.484;10.024;2024-01-11T11:36:42;96542.97;;;9.99;nan
8501;BME280;4288;48.484;10.024;2024-01-11T11:39:10;96549.19;;;11.77;nan
8501;BME280;4288;48.484;10.024;2024-01-11T11:41:38;96534.03;;;11.62;nan
8501;BME280;4288;48.484;10.024;2024-01-11T11:44:07;96540.19;;;10.30;nan
8501;BME280;4288;48.484;10.024;2024-01-11T11:46:39;96558.06;;;9.92;nan
8501;BME280;4288;48.484;10.024;2024-01-11T11:49:07;96555.09;;;8.80;nan
8501;BME280;4288;48.484;10.024;2024-01-11T11:51:36;96553.22;;;8.96;nan
8501;BME280;4288;48.484;10.024;2024-01-11T11:54:06;96544.66;;;7.92;nan
8501;BME280;4288;48.484;10.024;2024-01-11T11:56:36;96543.19;;;8.62;nan
8501;BME280;4288;48.484;10.024;2024-01-11T11:59:04;96541.56;;;7.27;nan
8501;BME280;4288;48.484;10.024;2024-01-11T12:01:34;96528.94;;;7.11;nan
8501;BME280;4288;48.484;10.024;2024-01-11T12:04:02;96532.59;;;5.97;nan
8501;BME280;4288;48.484;10.024;2024-01-11T12:06:30;96511.28;;;7.43;nan
8501;BME280;4288;48.484;10.024;2024-01-11T12:08:57;96495.91;;;7.76;nan
8501;BME280;4288;48.484;10.024;2024-01-11T12:11:25;96497.84;;;8.03;nan
8501;BME280;4288;48.484;10.024;2024-01-11T12:13:52;96487.56;;;9.23;nan
8501;BME280;4288;48.484;10.024;2024-01-11T12:16:23;96479.94;;;7.76;nan
8501;BME280;4288;48.484;10.024;2024-01-11T12:18:52;96479.50;;;6.62;nan
8501;BME280;4288;48.484;10.024;2024-01-11T12:21:20;96484.75;;;7.59;nan
8501;BME280;4288;48.484;10.024;2024-01-11T12:23:47;96482.75;;;7.68;nan
8501;BME280;4288;48.484;10.024;2024-01-11T12:26:15;96483.69;;;7.36;nan
8501;BME280;4288;48.484;10.024;2024-01-11T12:28:48;96492.34;;;7.84;nan
8501;BME280;4288;48.484;10.024;2024-01-11T12:31:17;96495.34;;;7.83;nan
8501;BME280;4288;48.484;10.024;2024-01-11T12:33:45;96475.19;;;7.30;nan
8501;BME280;4288;48.484;10.024;2024-01-11T12:36:15;96480.53;;;6.82;nan
8501;BME280;4288;48.484;10.024;2024-01-11T12:38:47;96475.09;;;6.66;nan
8501;BME280;4288;48.484;10.024;2024-01-11T12:41:15;96466.44;;;7.69;nan
8501;BME280;4288;48.484;10.024;2024-01-11T12:43:43;96470.91;;;7.93;nan
8501;BME280;4288;48.484;10.024;2024-01-11T12:46:10;96472.69;;;7.49;nan
8501;BME280;4288;48.484;10.024;2024-01-11T12:48:38;96479.59;;;8.76;nan
8501;BME280;4288;48.484;10.024;2024-01-11T12:51:06;96470.31;;;9.36;nan
8501;BME280;4288;48.484;10.024;2024-01-11T12:53:36;96464.78;;;8.48;nan
8501;BME280;4288;48.484;10.024;2024-01-11T12:56:04;96463.50;;;8.57;nan
8501;BME280;4288;48.484;10.024;2024-01-11T12:58:36;96467.13;;;8.22;nan
8501;BME280;4288;48.484;10.024;2024-01-11T13:01:04;96470.56;;;8.50;nan
8501;BME280;4288;48.484;10.024;2024-01-11T13:03:33;96476.13;;;9.57;nan
8501;BME280;4288;48.484;10.024;2024-01-11T13:06:01;96471.63;;;8.33;nan
8501;BME280;4288;48.484;10.024;2024-01-11T13:08:30;96468.56;;;7.76;nan
8501;BME280;4288;48.484;10.024;2024-01-11T13:10:59;96460.13;;;8.45;nan
8501;BME280;4288;48.484;10.024;2024-01-11T13:13:27;96453.34;;;9.44;nan
8501;BME280;4288;48.484;10.024;2024-01-11T13:15:56;96454.50;;;11.10;nan
8501;BME280;4288;48.484;10.024;2024-01-11T13:18:24;96463.41;;;11.18;nan
8501;BME280;4288;48.484;10.024;2024-01-11T13:20:51;96457.44;;;11.54;nan
8501;BME280;4288;48.484;10.024;2024-01-11T13:23:19;96453.03;;;11.39;nan
8501;BME280;4288;48.484;10.024;2024-01-11T13:25:48;96459.16;;;10.91;nan
8501;BME280;4288;48.484;10.024;2024-01-11T13:28:18;96458.00;;;11.40;nan
8501;BME280;4288;48.484;10.024;2024-01-11T13:30:46;96460.06;;;11.80;nan
8501;BME280;4288;48.484;10.024;2024-01-11T13:33:15;96471.19;;;11.26;nan
8501;BME280;4288;48.484;10.024;2024-01-11T13:35:44;96469.19;;;11.72;nan
8501;BME280;4288;48.484;10.024;2024-01-11T13:38:11;96482.53;;;9.91;nan
8501;BME280;4288;48.484;10.024;2024-01-11T13:40:39;96488.38;;;9.97;nan
8501;BME280;4288;48.484;10.024;2024-01-11T13:43:06;96483.59;;;8.55;nan